sensor_id;sensor_type;location;lat;lon;timestamp;P1;durP1;ratioP1;P2;durP2;ratioP2
62633;SDS011;48704;50.534;6.442;2022-09-09T00:01:43;6.45;;;1.15;;
62633;SDS011;48704;50.534;6.442;2022-09-09T00:06:55;2.95;;;1.05;;
62633;SDS011;48704;50.534;6.442;2022-09-09T00:09:28;3.70;;;1.63;;
62633;SDS011;48704;50.534;6.442;2022-09-09T00:11:56;5.47;;;1.30;;
62633;SDS011;48704;50.534;6.442;2022-09-09T00:17:04;8.98;;;2.03;;
62633;SDS011;48704;50.534;6.442;2022-09-09T00:19:56;4.03;;;1.60;;
62633;SDS011;48704;50.534;6.442;2022-09-09T00:22:28;2.70;;;1.38;;
62633;SDS011;48704;50.534;6.442;2022-09-09T00:25:08;8.50;;;1.98;;
62633;SDS011;48704;50.534;6.442;2022-09-09T00:32:47;6.63;;;2.03;;
62633;SDS011;48704;50.534;6.442;2022-09-09T00:35:20;7.50;;;2.38;;
62633;SDS011;48704;50.534;6.442;2022-09-09T00:37:49;4.50;;;1.75;;
62633;SDS011;48704;50.534;6.442;2022-09-09T00:40:22;6.22;;;1.70;;
62633;SDS011;48704;50.534;6.442;2022-09-09T00:43:08;6.32;;;1.85;;
62633;SDS011;48704;50.534;6.442;2022-09-09T00:45:48;5.22;;;1.50;;
62633;SDS011;48704;50.534;6.442;2022-09-09T00:57:23;7.27;;;2.40;;
62633;SDS011;48704;50.534;6.442;2022-09-09T01:02:53;4.20;;;1.98;;
62633;SDS011;48704;50.534;6.442;2022-09-09T01:11:30;7.20;;;2.15;;
62633;SDS011;48704;50.534;6.442;2022-09-09T01:14:20;8.02;;;2.63;;
62633;SDS011;48704;50.534;6.442;2022-09-09T01:16:56;10.25;;;2.53;;
62633;SDS011;48704;50.534;6.442;2022-09-09T01:28:07;5.20;;;2.22;;
62633;SDS011;48704;50.534;6.442;2022-09-09T01:30:35;8.60;;;2.28;;
62633;SDS011;48704;50.534;6.442;2022-09-09T01:33:03;9.13;;;2.35;;
62633;SDS011;48704;50.534;6.442;2022-09-09T01:38:00;7.03;;;2.30;;
62633;SDS011;48704;50.534;6.442;2022-09-09T01:40:26;11.50;;;2.63;;
62633;SDS011;48704;50.534;6.442;2022-09-09T01:42:52;5.97;;;2.45;;
62633;SDS011;48704;50.534;6.442;2022-09-09T01:45:18;4.65;;;2.33;;
62633;SDS011;48704;50.534;6.442;2022-09-09T01:47:44;6.35;;;2.35;;
62633;SDS011;48704;50.534;6.442;2022-09-09T01:50:11;8.40;;;2.10;;
62633;SDS011;48704;50.534;6.442;2022-09-09T01:52:39;6.18;;;2.00;;
62633;SDS011;48704;50.534;6.442;2022-09-09T01:55:05;8.52;;;2.13;;
62633;SDS011;48704;50.534;6.442;2022-09-09T01:57:33;5.00;;;2.40;;
62633;SDS011;48704;50.534;6.442;2022-09-09T02:00:24;8.95;;;2.00;;
62633;SDS011;48704;50.534;6.442;2022-09-09T02:08:09;7.63;;;2.45;;
62633;SDS011;48704;50.534;6.442;2022-09-09T02:13:31;7.45;;;2.78;;
62633;SDS011;48704;50.534;6.442;2022-09-09T02:19:23;4.38;;;2.50;;
62633;SDS011;48704;50.534;6.442;2022-09-09T02:21:57;4.80;;;2.10;;
62633;SDS011;48704;50.534;6.442;2022-09-09T02:24:26;5.38;;;2.40;;
62633;SDS011;48704;50.534;6.442;2022-09-09T02:26:54;5.45;;;2.33;;
62633;SDS011;48704;50.534;6.442;2022-09-09T02:29:23;8.38;;;2.45;;
62633;SDS011;48704;50.534;6.442;2022-09-09T02:31:53;7.57;;;2.03;;
62633;SDS011;48704;50.534;6.442;2022-09-09T02:34:23;5.93;;;1.80;;
62633;SDS011;48704;50.534;6.442;2022-09-09T02:36:51;9.70;;;2.60;;
62633;SDS011;48704;50.534;6.442;2022-09-09T02:39:19;6.10;;;2.10;;
62633;SDS011;48704;50.534;6.442;2022-09-09T02:41:44;6.60;;;2.45;;
62633;SDS011;48704;50.534;6.442;2022-09-09T02:44:14;9.00;;;2.30;;
62633;SDS011;48704;50.534;6.442;2022-09-09T02:49:20;5.07;;;1.85;;
62633;SDS011;48704;50.534;6.442;2022-09-09T02:52:06;7.93;;;2.22;;
62633;SDS011;48704;50.534;6.442;2022-09-09T02:54:35;10.05;;;2.10;;
62633;SDS011;48704;50.534;6.442;2022-09-09T02:57:06;7.15;;;2.10;;
62633;SDS011;48704;50.534;6.442;2022-09-09T02:59:36;8.18;;;2.40;;
62633;SDS011;48704;50.534;6.442;2022-09-09T03:02:02;7.70;;;2.00;;
62633;SDS011;48704;50.534;6.442;2022-09-09T03:04:28;9.15;;;2.42;;
62633;SDS011;48704;50.534;6.442;2022-09-09T03:06:55;7.38;;;2.17;;
62633;SDS011;48704;50.534;6.442;2022-09-09T03:09:20;6.13;;;2.10;;
62633;SDS011;48704;50.534;6.442;2022-09-09T03:11:46;8.43;;;1.83;;
62633;SDS011;48704;50.534;6.442;2022-09-09T03:14:11;4.93;;;2.25;;
62633;SDS011;48704;50.534;6.442;2022-09-09T03:16:37;6.22;;;1.95;;
62633;SDS011;48704;50.534;6.442;2022-09-09T03:19:02;6.97;;;2.38;;
62633;SDS011;48704;50.534;6.442;2022-09-09T03:21:28;4.43;;;2.22;;
62633;SDS011;48704;50.534;6.442;2022-09-09T03:23:53;6.22;;;1.70;;
62633;SDS011;48704;50.534;6.442;2022-09-09T03:26:19;6.03;;;1.80;;
62633;SDS011;48704;50.534;6.442;2022-09-09T03:28:45;5.85;;;1.85;;
62633;SDS011;48704;50.534;6.442;2022-09-09T03:31:10;3.08;;;1.70;;
62633;SDS011;48704;50.534;6.442;2022-09-09T03:33:38;6.60;;;1.95;;
62633;SDS011;48704;50.534;6.442;2022-09-09T03:36:06;4.90;;;1.83;;
62633;SDS011;48704;50.534;6.442;2022-09-09T03:38:33;8.68;;;2.00;;
62633;SDS011;48704;50.534;6.442;2022-09-09T03:40:59;7.28;;;2.45;;
62633;SDS011;48704;50.534;6.442;2022-09-09T03:43:25;7.13;;;1.60;;
62633;SDS011;48704;50.534;6.442;2022-09-09T03:45:51;4.72;;;1.70;;
62633;SDS011;48704;50.534;6.442;2022-09-09T03:48:17;5.53;;;1.75;;
62633;SDS011;48704;50.534;6.442;2022-09-09T03:50:46;6.25;;;2.05;;
62633;SDS011;48704;50.534;6.442;2022-09-09T03:53:16;4.93;;;1.50;;
62633;SDS011;48704;50.534;6.442;2022-09-09T03:55:47;6.30;;;1.35;;
62633;SDS011;48704;50.534;6.442;2022-09-09T03:58:15;8.13;;;1.50;;
62633;SDS011;48704;50.534;6.442;2022-09-09T04:00:41;7.80;;;1.60;;
62633;SDS011;48704;50.534;6.442;2022-09-09T04:03:08;6.07;;;1.70;;
62633;SDS011;48704;50.534;6.442;2022-09-09T04:05:34;5.25;;;1.50;;
62633;SDS011;48704;50.534;6.442;2022-09-09T04:08:00;7.07;;;1.90;;
62633;SDS011;48704;50.534;6.442;2022-09-09T04:10:25;6.72;;;1.27;;
62633;SDS011;48704;50.534;6.442;2022-09-09T04:12:51;9.18;;;1.95;;
62633;SDS011;48704;50.534;6.442;2022-09-09T04:15:17;6.88;;;1.88;;
62633;SDS011;48704;50.534;6.442;2022-09-09T04:17:43;5.57;;;1.65;;
62633;SDS011;48704;50.534;6.442;2022-09-09T04:20:09;7.05;;;1.80;;
62633;SDS011;48704;50.534;6.442;2022-09-09T04:22:37;6.18;;;1.60;;
62633;SDS011;48704;50.534;6.442;2022-09-09T04:25:03;8.48;;;1.70;;
62633;SDS011;48704;50.534;6.442;2022-09-09T04:27:30;5.38;;;1.73;;
62633;SDS011;48704;50.534;6.442;2022-09-09T04:29:56;3.80;;;1.70;;
62633;SDS011;48704;50.534;6.442;2022-09-09T04:32:22;6.65;;;1.60;;
62633;SDS011;48704;50.534;6.442;2022-09-09T04:34:48;8.10;;;1.80;;
62633;SDS011;48704;50.534;6.442;2022-09-09T04:37:13;4.03;;;1.48;;
62633;SDS011;48704;50.534;6.442;2022-09-09T04:39:39;4.40;;;1.58;;
62633;SDS011;48704;50.534;6.442;2022-09-09T04:42:04;3.53;;;1.40;;
62633;SDS011;48704;50.534;6.442;2022-09-09T04:44:30;6.55;;;1.88;;
62633;SDS011;48704;50.534;6.442;2022-09-09T04:46:55;5.60;;;1.25;;
62633;SDS011;48704;50.534;6.442;2022-09-09T04:49:21;4.60;;;1.40;;
62633;SDS011;48704;50.534;6.442;2022-09-09T04:51:47;3.88;;;1.10;;
62633;SDS011;48704;50.534;6.442;2022-09-09T04:54:14;3.10;;;1.20;;
62633;SDS011;48704;50.534;6.442;2022-09-09T04:56:39;4.43;;;1.55;;
62633;SDS011;48704;50.534;6.442;2022-09-09T04:59:06;4.88;;;1.67;;
62633;SDS011;48704;50.534;6.442;2022-09-09T05:01:31;4.35;;;1.25;;
62633;SDS011;48704;50.534;6.442;2022-09-09T05:03:57;5.18;;;1.60;;
62633;SDS011;48704;50.534;6.442;2022-09-09T05:06:23;4.53;;;1.63;;
62633;SDS011;48704;50.534;6.442;2022-09-09T05:08:48;8.35;;;1.50;;
62633;SDS011;48704;50.534;6.442;2022-09-09T05:11:23;8.90;;;2.10;;
62633;SDS011;48704;50.534;6.442;2022-09-09T05:13:50;6.55;;;2.00;;
62633;SDS011;48704;50.534;6.442;2022-09-09T05:16:16;6.18;;;1.75;;
62633;SDS011;48704;50.534;6.442;2022-09-09T05:18:42;6.13;;;2.10;;
62633;SDS011;48704;50.534;6.442;2022-09-09T05:21:08;7.13;;;1.55;;
62633;SDS011;48704;50.534;6.442;2022-09-09T05:23:35;7.60;;;1.65;;
62633;SDS011;48704;50.534;6.442;2022-09-09T05:26:00;5.10;;;1.70;;
62633;SDS011;48704;50.534;6.442;2022-09-09T05:28:27;8.68;;;1.65;;
62633;SDS011;48704;50.534;6.442;2022-09-09T05:30:59;7.75;;;1.45;;
62633;SDS011;48704;50.534;6.442;2022-09-09T05:33:29;7.13;;;1.63;;
62633;SDS011;48704;50.534;6.442;2022-09-09T05:35:55;4.30;;;1.70;;
62633;SDS011;48704;50.534;6.442;2022-09-09T05:38:24;4.45;;;1.50;;
62633;SDS011;48704;50.534;6.442;2022-09-09T05:40:50;5.25;;;1.77;;
62633;SDS011;48704;50.534;6.442;2022-09-09T05:43:17;7.45;;;1.85;;
62633;SDS011;48704;50.534;6.442;2022-09-09T05:45:43;7.43;;;1.42;;
62633;SDS011;48704;50.534;6.442;2022-09-09T05:48:08;9.63;;;1.70;;
62633;SDS011;48704;50.534;6.442;2022-09-09T05:50:33;6.82;;;1.48;;
62633;SDS011;48704;50.534;6.442;2022-09-09T05:52:59;6.70;;;1.67;;
62633;SDS011;48704;50.534;6.442;2022-09-09T05:55:24;7.22;;;1.80;;
62633;SDS011;48704;50.534;6.442;2022-09-09T05:57:50;6.25;;;1.80;;
62633;SDS011;48704;50.534;6.442;2022-09-09T06:00:16;6.88;;;1.42;;
62633;SDS011;48704;50.534;6.442;2022-09-09T06:02:42;9.52;;;1.50;;
62633;SDS011;48704;50.534;6.442;2022-09-09T06:05:08;5.05;;;1.30;;
62633;SDS011;48704;50.534;6.442;2022-09-09T06:07:35;8.07;;;1.90;;
62633;SDS011;48704;50.534;6.442;2022-09-09T06:10:00;4.78;;;1.65;;
62633;SDS011;48704;50.534;6.442;2022-09-09T06:12:25;4.60;;;1.45;;
62633;SDS011;48704;50.534;6.442;2022-09-09T06:14:51;5.90;;;1.90;;
62633;SDS011;48704;50.534;6.442;2022-09-09T06:17:16;6.75;;;1.77;;
62633;SDS011;48704;50.534;6.442;2022-09-09T06:19:42;3.95;;;1.58;;
62633;SDS011;48704;50.534;6.442;2022-09-09T06:22:07;7.18;;;1.65;;
62633;SDS011;48704;50.534;6.442;2022-09-09T06:24:36;6.95;;;1.88;;
62633;SDS011;48704;50.534;6.442;2022-09-09T06:27:02;8.20;;;1.50;;
62633;SDS011;48704;50.534;6.442;2022-09-09T06:29:28;7.00;;;1.40;;
62633;SDS011;48704;50.534;6.442;2022-09-09T06:31:53;9.85;;;1.58;;
62633;SDS011;48704;50.534;6.442;2022-09-09T06:34:18;6.45;;;1.80;;
62633;SDS011;48704;50.534;6.442;2022-09-09T06:36:44;9.43;;;1.77;;
62633;SDS011;48704;50.534;6.442;2022-09-09T06:39:10;5.70;;;2.28;;
62633;SDS011;48704;50.534;6.442;2022-09-09T06:41:36;8.18;;;1.80;;
62633;SDS011;48704;50.534;6.442;2022-09-09T06:44:03;7.88;;;1.55;;
62633;SDS011;48704;50.534;6.442;2022-09-09T06:46:29;8.82;;;1.90;;
62633;SDS011;48704;50.534;6.442;2022-09-09T06:48:57;7.55;;;1.52;;
62633;SDS011;48704;50.534;6.442;2022-09-09T06:51:27;8.63;;;1.77;;
62633;SDS011;48704;50.534;6.442;2022-09-09T06:53:58;5.43;;;1.70;;
62633;SDS011;48704;50.534;6.442;2022-09-09T06:56:28;6.85;;;1.60;;
62633;SDS011;48704;50.534;6.442;2022-09-09T06:59:00;9.35;;;1.48;;
62633;SDS011;48704;50.534;6.442;2022-09-09T07:01:29;7.00;;;2.10;;
62633;SDS011;48704;50.534;6.442;2022-09-09T07:03:57;6.05;;;1.42;;
62633;SDS011;48704;50.534;6.442;2022-09-09T07:06:29;8.55;;;1.60;;
62633;SDS011;48704;50.534;6.442;2022-09-09T07:08:57;7.05;;;1.30;;
62633;SDS011;48704;50.534;6.442;2022-09-09T07:11:25;20.55;;;2.42;;
62633;SDS011;48704;50.534;6.442;2022-09-09T07:13:53;8.65;;;1.90;;
62633;SDS011;48704;50.534;6.442;2022-09-09T07:16:19;5.93;;;1.63;;
62633;SDS011;48704;50.534;6.442;2022-09-09T07:18:46;7.50;;;1.40;;
62633;SDS011;48704;50.534;6.442;2022-09-09T07:21:12;5.05;;;1.35;;
62633;SDS011;48704;50.534;6.442;2022-09-09T07:23:39;9.32;;;1.60;;
62633;SDS011;48704;50.534;6.442;2022-09-09T07:26:08;6.68;;;1.10;;
62633;SDS011;48704;50.534;6.442;2022-09-09T07:28:34;7.55;;;1.40;;
62633;SDS011;48704;50.534;6.442;2022-09-09T07:31:00;4.22;;;1.27;;
62633;SDS011;48704;50.534;6.442;2022-09-09T07:33:30;6.45;;;1.58;;
62633;SDS011;48704;50.534;6.442;2022-09-09T07:36:10;5.95;;;1.30;;
62633;SDS011;48704;50.534;6.442;2022-09-09T07:38:39;5.40;;;1.30;;
62633;SDS011;48704;50.534;6.442;2022-09-09T07:41:18;8.18;;;1.85;;
62633;SDS011;48704;50.534;6.442;2022-09-09T07:43:45;6.70;;;1.25;;
62633;SDS011;48704;50.534;6.442;2022-09-09T07:46:13;5.75;;;1.48;;
62633;SDS011;48704;50.534;6.442;2022-09-09T07:48:46;6.55;;;1.42;;
62633;SDS011;48704;50.534;6.442;2022-09-09T07:51:16;5.18;;;1.35;;
62633;SDS011;48704;50.534;6.442;2022-09-09T07:53:45;2.22;;;1.10;;
62633;SDS011;48704;50.534;6.442;2022-09-09T07:56:12;6.75;;;1.63;;
62633;SDS011;48704;50.534;6.442;2022-09-09T07:58:41;5.18;;;1.10;;
62633;SDS011;48704;50.534;6.442;2022-09-09T08:01:10;9.93;;;1.60;;
62633;SDS011;48704;50.534;6.442;2022-09-09T08:03:37;4.97;;;1.33;;
62633;SDS011;48704;50.534;6.442;2022-09-09T08:06:03;5.45;;;1.48;;
62633;SDS011;48704;50.534;6.442;2022-09-09T08:08:31;6.28;;;1.90;;
62633;SDS011;48704;50.534;6.442;2022-09-09T08:11:01;5.75;;;2.10;;
62633;SDS011;48704;50.534;6.442;2022-09-09T08:13:28;7.32;;;1.33;;
62633;SDS011;48704;50.534;6.442;2022-09-09T08:15:53;3.35;;;1.35;;
62633;SDS011;48704;50.534;6.442;2022-09-09T08:18:19;7.28;;;1.30;;
62633;SDS011;48704;50.534;6.442;2022-09-09T08:20:44;5.82;;;1.33;;
62633;SDS011;48704;50.534;6.442;2022-09-09T08:23:09;5.40;;;1.40;;
62633;SDS011;48704;50.534;6.442;2022-09-09T08:25:35;5.97;;;1.55;;
62633;SDS011;48704;50.534;6.442;2022-09-09T08:28:00;4.40;;;1.42;;
62633;SDS011;48704;50.534;6.442;2022-09-09T08:30:26;8.23;;;1.27;;
62633;SDS011;48704;50.534;6.442;2022-09-09T08:32:51;6.65;;;1.25;;
62633;SDS011;48704;50.534;6.442;2022-09-09T08:35:17;5.60;;;1.20;;
62633;SDS011;48704;50.534;6.442;2022-09-09T08:37:42;9.20;;;1.63;;
62633;SDS011;48704;50.534;6.442;2022-09-09T08:40:09;5.82;;;1.25;;
62633;SDS011;48704;50.534;6.442;2022-09-09T08:42:49;5.45;;;1.10;;
62633;SDS011;48704;50.534;6.442;2022-09-09T08:45:19;2.70;;;1.00;;
62633;SDS011;48704;50.534;6.442;2022-09-09T08:50:22;10.13;;;1.25;;
62633;SDS011;48704;50.534;6.442;2022-09-09T08:55:47;6.25;;;1.40;;
62633;SDS011;48704;50.534;6.442;2022-09-09T08:58:18;3.90;;;1.30;;
62633;SDS011;48704;50.534;6.442;2022-09-09T09:05:50;3.33;;;1.23;;
62633;SDS011;48704;50.534;6.442;2022-09-09T09:11:08;5.60;;;1.38;;
62633;SDS011;48704;50.534;6.442;2022-09-09T09:13:45;5.72;;;1.40;;
62633;SDS011;48704;50.534;6.442;2022-09-09T09:19:22;5.40;;;1.30;;
62633;SDS011;48704;50.534;6.442;2022-09-09T09:24:23;6.18;;;1.52;;
62633;SDS011;48704;50.534;6.442;2022-09-09T09:26:49;4.70;;;1.48;;
62633;SDS011;48704;50.534;6.442;2022-09-09T09:29:16;4.22;;;1.13;;
62633;SDS011;48704;50.534;6.442;2022-09-09T09:31:48;6.93;;;1.35;;
62633;SDS011;48704;50.534;6.442;2022-09-09T09:34:17;5.72;;;1.45;;
62633;SDS011;48704;50.534;6.442;2022-09-09T09:36:43;4.53;;;1.02;;
62633;SDS011;48704;50.534;6.442;2022-09-09T09:39:22;4.90;;;1.10;;
62633;SDS011;48704;50.534;6.442;2022-09-09T09:41:51;4.88;;;1.25;;
62633;SDS011;48704;50.534;6.442;2022-09-09T09:47:05;2.85;;;1.25;;
62633;SDS011;48704;50.534;6.442;2022-09-09T09:49:32;4.20;;;1.45;;
62633;SDS011;48704;50.534;6.442;2022-09-09T09:52:04;4.32;;;1.30;;
62633;SDS011;48704;50.534;6.442;2022-09-09T09:54:32;3.33;;;1.45;;
62633;SDS011;48704;50.534;6.442;2022-09-09T09:57:09;4.78;;;1.70;;
62633;SDS011;48704;50.534;6.442;2022-09-09T09:59:39;4.65;;;1.20;;
62633;SDS011;48704;50.534;6.442;2022-09-09T10:02:11;7.80;;;1.52;;
62633;SDS011;48704;50.534;6.442;2022-09-09T10:04:38;3.70;;;1.50;;
62633;SDS011;48704;50.534;6.442;2022-09-09T10:07:10;13.20;;;2.60;;
62633;SDS011;48704;50.534;6.442;2022-09-09T10:09:37;4.95;;;1.50;;
62633;SDS011;48704;50.534;6.442;2022-09-09T10:15:43;8.27;;;1.50;;
62633;SDS011;48704;50.534;6.442;2022-09-09T10:18:41;8.02;;;1.60;;
62633;SDS011;48704;50.534;6.442;2022-09-09T10:23:57;4.10;;;1.50;;
62633;SDS011;48704;50.534;6.442;2022-09-09T10:29:23;6.78;;;2.10;;
62633;SDS011;48704;50.534;6.442;2022-09-09T10:35:02;6.57;;;1.57;;
62633;SDS011;48704;50.534;6.442;2022-09-09T10:40:27;6.15;;;1.55;;
62633;SDS011;48704;50.534;6.442;2022-09-09T10:42:58;6.88;;;1.52;;
62633;SDS011;48704;50.534;6.442;2022-09-09T10:53:57;4.60;;;1.00;;
62633;SDS011;48704;50.534;6.442;2022-09-09T10:56:34;6.07;;;1.17;;
62633;SDS011;48704;50.534;6.442;2022-09-09T10:59:07;5.25;;;1.40;;
62633;SDS011;48704;50.534;6.442;2022-09-09T11:04:19;4.20;;;1.30;;
62633;SDS011;48704;50.534;6.442;2022-09-09T11:06:49;5.80;;;1.25;;
62633;SDS011;48704;50.534;6.442;2022-09-09T11:09:22;4.07;;;1.10;;
62633;SDS011;48704;50.534;6.442;2022-09-09T11:11:52;3.75;;;1.08;;
62633;SDS011;48704;50.534;6.442;2022-09-09T11:14:26;5.57;;;1.23;;
62633;SDS011;48704;50.534;6.442;2022-09-09T11:16:56;4.28;;;1.00;;
62633;SDS011;48704;50.534;6.442;2022-09-09T11:19:35;4.35;;;1.40;;
62633;SDS011;48704;50.534;6.442;2022-09-09T11:22:08;5.80;;;1.23;;
62633;SDS011;48704;50.534;6.442;2022-09-09T11:24:49;5.43;;;1.10;;
62633;SDS011;48704;50.534;6.442;2022-09-09T11:29:49;8.23;;;1.67;;
62633;SDS011;48704;50.534;6.442;2022-09-09T11:35:30;5.10;;;0.93;;
62633;SDS011;48704;50.534;6.442;2022-09-09T11:40:38;6.72;;;1.40;;
62633;SDS011;48704;50.534;6.442;2022-09-09T11:43:10;5.25;;;1.05;;
62633;SDS011;48704;50.534;6.442;2022-09-09T11:45:40;6.05;;;1.33;;
62633;SDS011;48704;50.534;6.442;2022-09-09T11:48:22;5.15;;;1.27;;
62633;SDS011;48704;50.534;6.442;2022-09-09T11:50:57;5.65;;;1.30;;
62633;SDS011;48704;50.534;6.442;2022-09-09T11:53:35;4.38;;;0.90;;
62633;SDS011;48704;50.534;6.442;2022-09-09T11:56:12;6.05;;;1.17;;
62633;SDS011;48704;50.534;6.442;2022-09-09T12:01:49;5.43;;;1.25;;
62633;SDS011;48704;50.534;6.442;2022-09-09T12:06:53;4.20;;;1.13;;
62633;SDS011;48704;50.534;6.442;2022-09-09T12:12:06;6.57;;;1.83;;
62633;SDS011;48704;50.534;6.442;2022-09-09T12:14:56;5.82;;;1.38;;
62633;SDS011;48704;50.534;6.442;2022-09-09T12:17:26;3.97;;;1.38;;
62633;SDS011;48704;50.534;6.442;2022-09-09T12:20:06;5.95;;;1.63;;
62633;SDS011;48704;50.534;6.442;2022-09-09T12:22:42;7.78;;;1.95;;
62633;SDS011;48704;50.534;6.442;2022-09-09T12:25:19;5.85;;;1.92;;
62633;SDS011;48704;50.534;6.442;2022-09-09T12:27:59;2.70;;;1.20;;
62633;SDS011;48704;50.534;6.442;2022-09-09T12:30:31;3.67;;;1.87;;
62633;SDS011;48704;50.534;6.442;2022-09-09T12:33:06;5.35;;;1.20;;
62633;SDS011;48704;50.534;6.442;2022-09-09T12:35:36;4.35;;;1.23;;
62633;SDS011;48704;50.534;6.442;2022-09-09T12:38:04;2.10;;;1.20;;
62633;SDS011;48704;50.534;6.442;2022-09-09T12:40:36;4.30;;;1.15;;
62633;SDS011;48704;50.534;6.442;2022-09-09T12:43:02;6.97;;;1.50;;
62633;SDS011;48704;50.534;6.442;2022-09-09T12:45:46;4.43;;;1.10;;
62633;SDS011;48704;50.534;6.442;2022-09-09T12:48:12;5.03;;;1.45;;
62633;SDS011;48704;50.534;6.442;2022-09-09T12:50:50;2.17;;;1.10;;
62633;SDS011;48704;50.534;6.442;2022-09-09T12:57:09;5.47;;;1.27;;
62633;SDS011;48704;50.534;6.442;2022-09-09T12:59:38;2.35;;;1.08;;
62633;SDS011;48704;50.534;6.442;2022-09-09T13:02:11;2.53;;;1.20;;
62633;SDS011;48704;50.534;6.442;2022-09-09T13:04:46;3.03;;;1.45;;
62633;SDS011;48704;50.534;6.442;2022-09-09T13:07:12;2.53;;;1.20;;
62633;SDS011;48704;50.534;6.442;2022-09-09T13:09:38;3.83;;;1.17;;
62633;SDS011;48704;50.534;6.442;2022-09-09T13:12:04;4.93;;;1.00;;
62633;SDS011;48704;50.534;6.442;2022-09-09T13:14:37;3.10;;;1.10;;
62633;SDS011;48704;50.534;6.442;2022-09-09T13:17:03;2.97;;;1.02;;
62633;SDS011;48704;50.534;6.442;2022-09-09T13:19:37;1.50;;;0.70;;
62633;SDS011;48704;50.534;6.442;2022-09-09T13:24:39;1.58;;;0.65;;
62633;SDS011;48704;50.534;6.442;2022-09-09T13:27:19;3.05;;;1.20;;
62633;SDS011;48704;50.534;6.442;2022-09-09T13:29:51;2.40;;;1.10;;
62633;SDS011;48704;50.534;6.442;2022-09-09T13:32:21;4.82;;;1.13;;
62633;SDS011;48704;50.534;6.442;2022-09-09T13:34:53;3.05;;;1.10;;
62633;SDS011;48704;50.534;6.442;2022-09-09T13:37:23;8.23;;;1.55;;
62633;SDS011;48704;50.534;6.442;2022-09-09T13:39:55;3.55;;;1.17;;
62633;SDS011;48704;50.534;6.442;2022-09-09T13:42:40;3.35;;;1.35;;
62633;SDS011;48704;50.534;6.442;2022-09-09T13:45:14;2.85;;;1.20;;
62633;SDS011;48704;50.534;6.442;2022-09-09T13:47:48;5.68;;;1.50;;
62633;SDS011;48704;50.534;6.442;2022-09-09T13:50:24;4.20;;;1.23;;
62633;SDS011;48704;50.534;6.442;2022-09-09T13:52:52;4.40;;;1.38;;
62633;SDS011;48704;50.534;6.442;2022-09-09T13:55:23;4.07;;;1.10;;
62633;SDS011;48704;50.534;6.442;2022-09-09T14:00:21;2.35;;;1.15;;
62633;SDS011;48704;50.534;6.442;2022-09-09T14:02:47;3.20;;;1.00;;
62633;SDS011;48704;50.534;6.442;2022-09-09T14:05:14;2.15;;;0.80;;
62633;SDS011;48704;50.534;6.442;2022-09-09T14:07:40;2.63;;;0.80;;
62633;SDS011;48704;50.534;6.442;2022-09-09T14:10:07;3.78;;;1.00;;
62633;SDS011;48704;50.534;6.442;2022-09-09T14:12:33;1.98;;;0.77;;
62633;SDS011;48704;50.534;6.442;2022-09-09T14:14:58;2.60;;;1.20;;
62633;SDS011;48704;50.534;6.442;2022-09-09T14:17:24;3.30;;;0.85;;
62633;SDS011;48704;50.534;6.442;2022-09-09T14:19:54;2.70;;;0.68;;
62633;SDS011;48704;50.534;6.442;2022-09-09T14:22:19;2.08;;;0.73;;
62633;SDS011;48704;50.534;6.442;2022-09-09T14:24:45;3.08;;;1.10;;
62633;SDS011;48704;50.534;6.442;2022-09-09T14:27:11;3.67;;;1.20;;
62633;SDS011;48704;50.534;6.442;2022-09-09T14:29:36;1.63;;;0.88;;
62633;SDS011;48704;50.534;6.442;2022-09-09T14:32:01;2.25;;;1.02;;
62633;SDS011;48704;50.534;6.442;2022-09-09T14:34:27;3.60;;;1.30;;
62633;SDS011;48704;50.534;6.442;2022-09-09T14:36:52;4.40;;;1.10;;
62633;SDS011;48704;50.534;6.442;2022-09-09T14:39:17;1.58;;;0.95;;
62633;SDS011;48704;50.534;6.442;2022-09-09T14:41:43;4.75;;;1.50;;
62633;SDS011;48704;50.534;6.442;2022-09-09T14:44:08;3.65;;;1.48;;
62633;SDS011;48704;50.534;6.442;2022-09-09T14:46:33;4.25;;;1.60;;
62633;SDS011;48704;50.534;6.442;2022-09-09T14:48:59;2.97;;;1.42;;
62633;SDS011;48704;50.534;6.442;2022-09-09T14:51:24;5.22;;;1.42;;
62633;SDS011;48704;50.534;6.442;2022-09-09T14:53:52;4.05;;;1.27;;
62633;SDS011;48704;50.534;6.442;2022-09-09T14:56:19;4.35;;;1.23;;
62633;SDS011;48704;50.534;6.442;2022-09-09T14:58:47;6.32;;;1.52;;
62633;SDS011;48704;50.534;6.442;2022-09-09T15:01:14;2.53;;;1.00;;
62633;SDS011;48704;50.534;6.442;2022-09-09T15:03:41;2.50;;;1.10;;
62633;SDS011;48704;50.534;6.442;2022-09-09T15:06:09;1.95;;;1.05;;
62633;SDS011;48704;50.534;6.442;2022-09-09T15:08:41;4.13;;;1.00;;
62633;SDS011;48704;50.534;6.442;2022-09-09T15:11:09;3.03;;;1.05;;
62633;SDS011;48704;50.534;6.442;2022-09-09T15:13:36;4.10;;;1.20;;
62633;SDS011;48704;50.534;6.442;2022-09-09T15:16:07;2.92;;;1.05;;
62633;SDS011;48704;50.534;6.442;2022-09-09T15:18:33;4.07;;;1.20;;
62633;SDS011;48704;50.534;6.442;2022-09-09T15:21:01;3.17;;;0.90;;
62633;SDS011;48704;50.534;6.442;2022-09-09T15:23:31;2.72;;;0.90;;
62633;SDS011;48704;50.534;6.442;2022-09-09T15:25:57;4.50;;;1.00;;
62633;SDS011;48704;50.534;6.442;2022-09-09T15:28:22;3.63;;;1.10;;
62633;SDS011;48704;50.534;6.442;2022-09-09T15:30:48;3.95;;;1.20;;
62633;SDS011;48704;50.534;6.442;2022-09-09T15:33:14;3.72;;;1.10;;
62633;SDS011;48704;50.534;6.442;2022-09-09T15:35:40;3.17;;;1.13;;
62633;SDS011;48704;50.534;6.442;2022-09-09T15:38:05;3.15;;;1.00;;
62633;SDS011;48704;50.534;6.442;2022-09-09T15:40:31;4.93;;;1.13;;
62633;SDS011;48704;50.534;6.442;2022-09-09T15:42:59;3.85;;;1.30;;
62633;SDS011;48704;50.534;6.442;2022-09-09T15:45:24;3.10;;;1.15;;
62633;SDS011;48704;50.534;6.442;2022-09-09T15:47:49;3.15;;;1.25;;
62633;SDS011;48704;50.534;6.442;2022-09-09T15:50:15;4.30;;;1.15;;
62633;SDS011;48704;50.534;6.442;2022-09-09T15:52:41;5.20;;;1.40;;
62633;SDS011;48704;50.534;6.442;2022-09-09T15:55:06;5.07;;;1.25;;
62633;SDS011;48704;50.534;6.442;2022-09-09T15:57:33;3.83;;;1.27;;
62633;SDS011;48704;50.534;6.442;2022-09-09T15:59:59;5.68;;;1.40;;
62633;SDS011;48704;50.534;6.442;2022-09-09T16:02:25;3.55;;;1.38;;
62633;SDS011;48704;50.534;6.442;2022-09-09T16:04:50;4.35;;;1.38;;
62633;SDS011;48704;50.534;6.442;2022-09-09T16:07:15;4.07;;;1.55;;
62633;SDS011;48704;50.534;6.442;2022-09-09T16:09:41;4.38;;;1.50;;
62633;SDS011;48704;50.534;6.442;2022-09-09T16:12:08;5.45;;;1.45;;
62633;SDS011;48704;50.534;6.442;2022-09-09T16:14:36;2.50;;;1.40;;
62633;SDS011;48704;50.534;6.442;2022-09-09T16:17:03;5.38;;;1.60;;
62633;SDS011;48704;50.534;6.442;2022-09-09T16:19:30;4.03;;;1.20;;
62633;SDS011;48704;50.534;6.442;2022-09-09T16:21:56;3.25;;;1.00;;
62633;SDS011;48704;50.534;6.442;2022-09-09T16:24:22;3.10;;;1.10;;
62633;SDS011;48704;50.534;6.442;2022-09-09T16:26:50;1.98;;;0.95;;
62633;SDS011;48704;50.534;6.442;2022-09-09T16:29:17;4.70;;;1.40;;
62633;SDS011;48704;50.534;6.442;2022-09-09T16:31:44;3.72;;;1.15;;
62633;SDS011;48704;50.534;6.442;2022-09-09T16:34:10;1.90;;;1.10;;
62633;SDS011;48704;50.534;6.442;2022-09-09T16:36:36;3.78;;;1.05;;
62633;SDS011;48704;50.534;6.442;2022-09-09T16:39:08;3.08;;;0.90;;
62633;SDS011;48704;50.534;6.442;2022-09-09T16:41:36;2.80;;;1.08;;
62633;SDS011;48704;50.534;6.442;2022-09-09T16:44:03;4.28;;;0.95;;
62633;SDS011;48704;50.534;6.442;2022-09-09T16:46:31;4.13;;;0.90;;
62633;SDS011;48704;50.534;6.442;2022-09-09T16:48:59;3.25;;;1.00;;
62633;SDS011;48704;50.534;6.442;2022-09-09T16:51:26;3.65;;;1.23;;
62633;SDS011;48704;50.534;6.442;2022-09-09T16:53:52;2.40;;;1.33;;
62633;SDS011;48704;50.534;6.442;2022-09-09T16:56:20;4.45;;;1.23;;
62633;SDS011;48704;50.534;6.442;2022-09-09T16:58:50;4.20;;;1.10;;
62633;SDS011;48704;50.534;6.442;2022-09-09T17:01:17;2.55;;;1.30;;
62633;SDS011;48704;50.534;6.442;2022-09-09T17:03:42;3.40;;;1.20;;
62633;SDS011;48704;50.534;6.442;2022-09-09T17:06:11;2.50;;;1.00;;